createdAt,value
2023-03-12T00:01:17.880Z,61.43
2023-03-12T00:03:47.843Z,61.50
2023-03-12T00:06:16.046Z,61.55
2023-03-12T00:08:44.740Z,62.24
2023-03-12T00:11:15.709Z,63.16
2023-03-12T00:13:44.458Z,64.77
2023-03-12T00:16:14.895Z,65.11
2023-03-12T00:18:44.418Z,66.51
2023-03-12T00:21:13.842Z,67.02
2023-03-12T00:23:42.043Z,66.34
2023-03-12T00:26:12.311Z,66.47
2023-03-12T00:28:41.326Z,66.25
2023-03-12T00:31:16.217Z,66.48
2023-03-12T00:33:44.892Z,67.45
2023-03-12T00:36:14.672Z,68.59
2023-03-12T00:38:42.992Z,69.58
2023-03-12T00:41:11.352Z,70.57
2023-03-12T00:43:39.471Z,71.57
2023-03-12T00:46:07.458Z,72.82
2023-03-12T00:48:35.608Z,74.28
2023-03-12T00:51:03.641Z,74.74
2023-03-12T00:53:33.060Z,74.51
2023-03-12T00:56:01.145Z,74.70
2023-03-12T00:58:29.226Z,75.16
2023-03-12T01:00:57.321Z,74.83
2023-03-12T01:03:25.423Z,74.52
2023-03-12T01:05:55.758Z,74.78
2023-03-12T01:08:24.754Z,75.11
2023-03-12T01:10:54.364Z,74.90
2023-03-12T01:13:22.789Z,74.91
2023-03-12T01:15:50.880Z,74.67
2023-03-12T01:18:18.958Z,74.61
2023-03-12T01:20:47.168Z,74.85
2023-03-12T01:23:15.143Z,75.24
2023-03-12T01:25:43.531Z,75.03
2023-03-12T01:28:12.920Z,74.44
2023-03-12T01:30:40.986Z,74.70
2023-03-12T01:33:09.046Z,73.96
2023-03-12T01:35:39.476Z,74.53
2023-03-12T01:38:07.935Z,74.80
2023-03-12T01:40:38.125Z,74.81
2023-03-12T01:43:29.797Z,75.13
2023-03-12T01:46:06.166Z,74.82
2023-03-12T01:48:40.970Z,75.19
2023-03-12T01:51:11.813Z,76.44
2023-03-12T01:53:43.858Z,77.29
2023-03-12T01:56:12.598Z,78.19
2023-03-12T01:58:46.353Z,78.30
2023-03-12T02:01:15.929Z,79.50
2023-03-12T02:03:46.830Z,78.08
2023-03-12T02:06:17.439Z,78.95
2023-03-12T02:08:48.741Z,79.05
2023-03-12T02:11:16.680Z,79.37
2023-03-12T02:13:46.124Z,79.38
2023-03-12T02:16:14.824Z,79.69
2023-03-12T02:18:43.032Z,80.56
2023-03-12T02:21:17.423Z,80.21
2023-03-12T02:23:53.408Z,80.97
2023-03-12T02:26:24.389Z,81.14
2023-03-12T02:28:53.085Z,81.60
2023-03-12T02:31:25.158Z,82.83
2023-03-12T02:33:56.137Z,83.30
2023-03-12T02:36:24.177Z,83.75
2023-03-12T02:38:54.129Z,85.27
2023-03-12T02:41:28.512Z,86.69
2023-03-12T02:44:02.554Z,88.22
2023-03-12T02:46:33.417Z,87.95
2023-03-12T02:49:02.227Z,87.89
2023-03-12T02:51:30.259Z,88.68
2023-03-12T02:53:58.426Z,89.58
2023-03-12T02:56:29.621Z,90.45
2023-03-12T02:58:57.903Z,90.69
2023-03-12T03:01:26.187Z,90.65
2023-03-12T03:03:54.810Z,91.15
2023-03-12T03:06:23.061Z,90.88
2023-03-12T03:08:51.257Z,90.61
2023-03-12T03:11:19.656Z,90.50
2023-03-12T03:13:49.169Z,89.96
2023-03-12T03:16:18.018Z,89.39
2023-03-12T03:18:46.224Z,88.96
2023-03-12T03:21:16.711Z,88.33
2023-03-12T03:23:45.195Z,87.47
2023-03-12T03:26:13.585Z,86.96
2023-03-12T03:31:11.305Z,85.12
2023-03-12T03:33:40.902Z,85.47
2023-03-12T03:36:10.114Z,85.53
2023-03-12T03:38:38.272Z,85.72
2023-03-12T03:41:06.313Z,85.84
2023-03-12T03:43:34.652Z,85.84
2023-03-12T03:46:04.656Z,86.15
2023-03-12T03:48:34.563Z,86.15
2023-03-12T03:51:03.090Z,85.47
2023-03-12T03:53:31.895Z,85.82
2023-03-12T03:56:07.177Z,84.83
2023-03-12T03:58:35.282Z,85.03
2023-03-12T04:01:03.456Z,85.53
2023-03-12T04:03:31.693Z,84.86
2023-03-12T04:06:03.799Z,84.40
2023-03-12T04:08:33.037Z,85.13
2023-03-12T04:11:01.255Z,85.16
2023-03-12T04:13:29.388Z,84.69
2023-03-12T04:15:57.512Z,84.41
2023-03-12T04:18:25.667Z,84.72
2023-03-12T04:20:53.714Z,84.34
2023-03-12T04:23:23.276Z,84.32
2023-03-12T04:25:51.298Z,84.77
2023-03-12T04:28:19.373Z,85.06
2023-03-12T04:30:55.229Z,84.78
2023-03-12T04:33:23.464Z,85.03
2023-03-12T04:35:54.707Z,84.90
2023-03-12T04:38:25.715Z,84.47
2023-03-12T04:41:00.151Z,84.49
2023-03-12T04:43:29.558Z,84.85
2023-03-12T04:45:58.351Z,85.27
2023-03-12T04:48:26.781Z,85.41
2023-03-12T04:50:55.316Z,85.96
2023-03-12T04:53:25.187Z,86.59
2023-03-12T04:55:53.682Z,86.53
2023-03-12T04:58:23.455Z,86.82
2023-03-12T05:00:52.233Z,86.53
2023-03-12T05:03:20.283Z,87.08
2023-03-12T05:05:48.570Z,86.92
2023-03-12T05:08:16.614Z,86.60
2023-03-12T05:10:46.397Z,86.95
2023-03-12T05:13:15.756Z,87.40
2023-03-12T05:15:44.066Z,87.88
2023-03-12T05:18:12.253Z,88.57
2023-03-12T05:20:40.968Z,89.61
2023-03-12T05:23:09.883Z,89.32
2023-03-12T05:25:40.714Z,89.54
2023-03-12T05:28:10.622Z,90.09
2023-03-12T05:30:40.620Z,89.40
2023-03-12T05:33:08.790Z,89.71
2023-03-12T05:35:36.834Z,89.56
2023-03-12T05:38:04.993Z,89.47
2023-03-12T05:40:33.139Z,89.12
2023-03-12T05:43:01.500Z,88.36
2023-03-12T05:45:31.461Z,88.65
2023-03-12T05:47:59.724Z,87.75
2023-03-12T05:50:28.112Z,87.32
2023-03-12T05:52:56.180Z,87.17
2023-03-12T05:55:24.440Z,87.56
2023-03-12T05:57:52.410Z,87.68
2023-03-12T06:00:21.582Z,87.59
2023-03-12T06:02:51.899Z,87.73
2023-03-12T06:05:20.025Z,87.39
2023-03-12T06:07:48.117Z,87.50
2023-03-12T06:10:16.266Z,87.53
2023-03-12T06:12:44.370Z,87.14
2023-03-12T06:15:12.712Z,86.54
2023-03-12T06:17:40.706Z,86.26
2023-03-12T06:20:11.619Z,86.50
2023-03-12T06:22:42.753Z,85.19
2023-03-12T06:25:11.552Z,84.52
2023-03-12T06:27:39.747Z,84.72
2023-03-12T06:30:09.854Z,85.42
2023-03-12T06:32:38.149Z,85.19
2023-03-12T06:35:07.031Z,85.71
2023-03-12T06:37:36.803Z,85.04
2023-03-12T06:40:07.860Z,84.49
2023-03-12T06:42:35.785Z,83.33
2023-03-12T06:45:04.848Z,83.31
2023-03-12T06:47:33.221Z,81.63
2023-03-12T06:50:01.209Z,80.26
2023-03-12T06:52:29.221Z,79.64
2023-03-12T06:55:01.240Z,78.32
2023-03-12T06:57:29.229Z,76.15
2023-03-12T06:59:57.308Z,74.81
2023-03-12T07:02:25.467Z,73.38
2023-03-12T07:04:53.521Z,72.74
2023-03-12T07:07:21.610Z,72.62
2023-03-12T07:09:49.654Z,72.08
2023-03-12T07:12:19.053Z,71.88
2023-03-12T07:14:49.651Z,70.77
2023-03-12T07:17:17.773Z,68.41
2023-03-12T07:19:46.448Z,68.71
2023-03-12T07:22:15.710Z,66.26
2023-03-12T07:24:43.793Z,67.09
2023-03-12T07:27:12.089Z,67.01
2023-03-12T07:29:41.869Z,64.47
2023-03-12T07:32:10.194Z,64.31
2023-03-12T07:34:38.354Z,62.27
2023-03-12T07:37:06.795Z,60.30
2023-03-12T07:39:35.137Z,60.42
2023-03-12T07:42:03.346Z,60.40
2023-03-12T07:44:31.581Z,59.33
2023-03-12T07:47:12.836Z,57.01
2023-03-12T07:49:49.573Z,55.56
2023-03-12T07:52:18.400Z,55.54
2023-03-12T07:54:46.775Z,53.99
2023-03-12T07:57:15.041Z,52.41
2023-03-12T07:59:43.271Z,51.75
2023-03-12T08:02:12.886Z,51.36
2023-03-12T08:04:41.195Z,50.63
2023-03-12T08:07:09.522Z,51.24
2023-03-12T08:09:38.869Z,50.83
2023-03-12T08:12:07.604Z,49.75
2023-03-12T08:14:36.132Z,49.48
2023-03-12T08:17:04.209Z,49.12
2023-03-12T08:19:33.666Z,48.40
2023-03-12T08:22:02.054Z,48.25
2023-03-12T08:24:30.071Z,47.85
2023-03-12T08:26:58.290Z,48.07
2023-03-12T08:29:26.383Z,47.70
2023-03-12T08:32:04.560Z,47.75
2023-03-12T08:34:34.972Z,48.17
2023-03-12T08:37:04.007Z,48.09
2023-03-12T08:39:32.178Z,47.17
2023-03-12T08:42:00.360Z,46.59
2023-03-12T08:44:28.682Z,46.94
2023-03-12T08:46:56.798Z,47.51
2023-03-12T08:49:25.250Z,47.40
2023-03-12T08:51:54.794Z,47.22
2023-03-12T08:54:23.098Z,46.75
2023-03-12T08:56:52.291Z,47.64
2023-03-12T08:59:22.428Z,47.79
2023-03-12T09:01:51.079Z,46.91
2023-03-12T09:04:20.033Z,47.27
2023-03-12T09:06:48.246Z,47.75
2023-03-12T09:09:17.926Z,47.92
2023-03-12T09:11:46.051Z,45.90
2023-03-12T09:17:03.388Z,43.32
2023-03-12T09:19:31.561Z,43.16
2023-03-12T09:21:59.774Z,42.79
2023-03-12T09:24:29.334Z,42.22
2023-03-12T09:26:57.356Z,41.54
2023-03-12T09:29:25.457Z,42.32
2023-03-12T09:31:53.686Z,41.25
2023-03-12T09:34:21.809Z,40.06
2023-03-12T09:36:50.062Z,39.20
2023-03-12T09:39:18.064Z,40.19
2023-03-12T09:41:49.011Z,38.30
2023-03-12T09:44:22.058Z,37.71
2023-03-12T09:46:53.665Z,38.66
2023-03-12T09:49:31.960Z,38.40
2023-03-12T09:52:03.249Z,38.60
2023-03-12T09:54:37.944Z,38.66
2023-03-12T09:57:12.639Z,38.51
2023-03-12T09:59:40.749Z,40.11
2023-03-12T10:02:30.574Z,40.56
2023-03-12T10:05:03.817Z,41.23
2023-03-12T10:07:36.080Z,40.26
2023-03-12T10:10:30.979Z,39.24
2023-03-12T10:13:18.980Z,38.88
2023-03-12T10:16:03.043Z,39.59
2023-03-12T10:18:43.436Z,39.66
2023-03-12T10:21:21.543Z,39.98
2023-03-12T10:24:04.045Z,40.68
2023-03-12T10:26:38.272Z,39.46
2023-03-12T10:29:14.822Z,39.68
2023-03-12T10:31:52.965Z,39.33
2023-03-12T10:34:26.970Z,39.08
2023-03-12T10:37:00.440Z,38.55
2023-03-12T10:39:28.656Z,38.40
2023-03-12T10:41:57.947Z,39.07
2023-03-12T10:44:28.036Z,38.32
2023-03-12T10:47:06.778Z,37.86
2023-03-12T10:49:36.426Z,38.63
2023-03-12T10:52:11.531Z,37.75
2023-03-12T10:54:43.763Z,37.63
2023-03-12T10:57:12.927Z,37.80
2023-03-12T10:59:45.277Z,38.06
2023-03-12T11:02:40.995Z,37.38
2023-03-12T11:05:20.688Z,37.53
2023-03-12T11:07:49.069Z,37.41
2023-03-12T11:10:23.508Z,36.94
2023-03-12T11:13:03.706Z,36.54
2023-03-12T11:15:40.903Z,36.33
2023-03-12T11:18:20.954Z,36.48
2023-03-12T11:20:50.242Z,36.90
2023-03-12T11:23:21.627Z,36.59
2023-03-12T11:25:54.860Z,36.17
2023-03-12T11:28:27.063Z,36.20
2023-03-12T11:30:59.533Z,36.92
2023-03-12T11:33:27.889Z,37.45
2023-03-12T11:36:09.201Z,37.47
2023-03-12T11:38:42.656Z,36.12
2023-03-12T11:41:25.960Z,35.99
2023-03-12T11:44:07.312Z,35.96
2023-03-12T11:46:50.577Z,35.21
2023-03-12T11:49:29.276Z,36.44
2023-03-12T11:52:05.082Z,34.60
2023-03-12T11:54:59.011Z,34.30
2023-03-12T11:57:36.356Z,34.35
2023-03-12T12:00:13.832Z,34.87
2023-03-12T12:02:58.727Z,33.07
2023-03-12T12:05:37.894Z,33.14
2023-03-12T12:08:28.532Z,33.50
2023-03-12T12:11:07.612Z,33.80
2023-03-12T12:13:45.017Z,32.86
2023-03-12T12:16:26.964Z,33.15
2023-03-12T12:19:08.948Z,33.52
2023-03-12T12:21:51.330Z,33.56
2023-03-12T12:24:35.993Z,33.06
2023-03-12T12:27:16.329Z,32.41
2023-03-12T12:30:10.021Z,31.97
2023-03-12T12:33:01.217Z,31.19
2023-03-12T12:35:36.349Z,32.52
2023-03-12T12:38:10.809Z,33.06
2023-03-12T12:40:42.639Z,32.91
2023-03-12T12:43:24.011Z,32.24
2023-03-12T12:45:54.659Z,33.28
2023-03-12T12:48:27.357Z,33.48
2023-03-12T12:50:59.696Z,32.54
2023-03-12T12:53:32.324Z,33.32
2023-03-12T12:56:14.165Z,31.63
2023-03-12T12:59:10.961Z,30.90
2023-03-12T13:01:39.983Z,30.78
2023-03-12T13:04:12.998Z,28.20
2023-03-12T13:06:59.165Z,25.10
2023-03-12T13:09:39.510Z,22.19
2023-03-12T13:12:16.899Z,20.64
2023-03-12T13:14:47.065Z,19.69
2023-03-12T13:17:34.737Z,17.65
2023-03-12T13:20:15.355Z,17.04
2023-03-12T13:22:59.588Z,16.95
2023-03-12T13:25:40.239Z,16.31
2023-03-12T13:28:44.892Z,14.16
2023-03-12T13:31:35.712Z,12.84
2023-03-12T13:34:34.398Z,13.09
2023-03-12T13:37:04.206Z,13.23
2023-03-12T13:39:36.448Z,12.60
2023-03-12T13:42:43.643Z,11.75
2023-03-12T13:45:26.822Z,11.17
2023-03-12T13:48:00.403Z,11.82
2023-03-12T13:50:29.545Z,11.39
2023-03-12T13:53:05.350Z,10.34
2023-03-12T13:55:36.318Z,10.51
2023-03-12T13:58:10.200Z,9.76
2023-03-12T14:00:42.925Z,10.39
2023-03-12T14:03:17.583Z,10.53
2023-03-12T14:05:51.664Z,12.16
2023-03-12T14:08:34.809Z,13.06
2023-03-12T14:11:22.723Z,13.48
2023-03-12T14:14:19.408Z,14.98
2023-03-12T14:16:49.537Z,17.10
2023-03-12T14:19:19.842Z,18.23
2023-03-12T14:21:49.976Z,19.89
2023-03-12T14:24:25.907Z,20.55
2023-03-12T14:26:56.322Z,21.10
2023-03-12T14:29:29.465Z,22.30
2023-03-12T14:32:00.565Z,23.83
2023-03-12T14:34:31.840Z,24.47
2023-03-12T14:37:05.896Z,25.18
2023-03-12T14:39:36.308Z,25.20
2023-03-12T14:42:08.041Z,25.85
2023-03-12T14:44:37.946Z,26.38
2023-03-12T14:47:10.208Z,26.71
2023-03-12T14:49:42.481Z,26.80
2023-03-12T14:52:13.311Z,26.56
2023-03-12T14:54:41.972Z,26.75
2023-03-12T14:57:20.802Z,27.58
2023-03-12T14:59:53.978Z,27.25
2023-03-12T15:02:23.332Z,27.27
2023-03-12T15:04:55.360Z,27.95
2023-03-12T15:07:28.381Z,28.64
2023-03-12T15:09:56.738Z,28.36
2023-03-12T15:12:28.191Z,29.05
2023-03-12T15:15:02.700Z,29.11
2023-03-12T15:17:32.732Z,29.08
2023-03-12T15:20:03.079Z,29.36
2023-03-12T15:22:31.303Z,29.92
2023-03-12T15:25:03.672Z,30.68
2023-03-12T15:27:35.091Z,31.32
2023-03-12T15:30:03.268Z,31.79
2023-03-12T15:32:32.097Z,32.13
2023-03-12T15:35:00.947Z,32.38
2023-03-12T15:37:38.026Z,32.07
2023-03-12T15:40:10.856Z,32.62
2023-03-12T15:42:44.851Z,32.59
2023-03-12T15:45:20.790Z,33.03
2023-03-12T15:47:49.923Z,32.83
2023-03-12T15:50:22.058Z,31.79
2023-03-12T15:53:01.677Z,30.63
2023-03-12T15:55:31.090Z,30.54
2023-03-12T15:58:01.891Z,31.04
2023-03-12T16:00:31.107Z,31.60
2023-03-12T16:03:00.921Z,32.00
2023-03-12T16:05:33.313Z,31.74
2023-03-12T16:08:03.235Z,32.58
2023-03-12T16:10:36.301Z,33.29
2023-03-12T16:13:07.034Z,33.99
2023-03-12T16:15:38.656Z,34.63
2023-03-12T16:18:12.666Z,34.73
2023-03-12T16:20:40.781Z,35.93
2023-03-12T16:23:08.891Z,36.68
2023-03-12T16:25:37.616Z,37.50
2023-03-12T16:28:08.602Z,37.08
2023-03-12T16:30:37.950Z,36.66
2023-03-12T16:33:09.081Z,36.88
2023-03-12T16:35:37.597Z,38.46
2023-03-12T16:38:05.810Z,38.89
2023-03-12T16:40:36.985Z,39.41
2023-03-12T16:43:09.049Z,38.42
2023-03-12T16:45:38.105Z,37.91
2023-03-12T16:48:07.689Z,37.91
2023-03-12T16:50:35.844Z,38.33
2023-03-12T16:53:05.211Z,38.34
2023-03-12T16:55:46.052Z,38.54
2023-03-12T16:58:17.583Z,38.95
2023-03-12T17:00:46.744Z,39.51
2023-03-12T17:03:20.945Z,39.16
2023-03-12T17:05:49.003Z,39.54
2023-03-12T17:08:17.291Z,40.36
2023-03-12T17:10:48.548Z,40.55
2023-03-12T17:13:22.205Z,39.95
2023-03-12T17:15:50.816Z,40.29
2023-03-12T17:18:19.371Z,41.35
2023-03-12T17:20:48.010Z,41.55
2023-03-12T17:23:16.514Z,41.75
2023-03-12T17:25:45.461Z,41.15
2023-03-12T17:28:15.452Z,40.82
2023-03-12T17:30:45.301Z,41.31
2023-03-12T17:33:15.281Z,41.01
2023-03-12T17:35:44.357Z,41.49
2023-03-12T17:38:14.102Z,41.77
2023-03-12T17:40:42.587Z,41.85
2023-03-12T17:43:11.138Z,41.33
2023-03-12T17:45:39.270Z,41.46
2023-03-12T17:48:08.913Z,39.92
2023-03-12T17:50:37.900Z,40.12
2023-03-12T17:53:06.151Z,38.53
2023-03-12T17:55:34.258Z,37.92
2023-03-12T17:58:03.450Z,38.35
2023-03-12T18:00:31.632Z,38.56
2023-03-12T18:02:59.824Z,38.24
2023-03-12T18:05:29.534Z,37.34
2023-03-12T18:07:57.888Z,36.83
2023-03-12T18:10:26.054Z,36.70
2023-03-12T18:12:55.745Z,36.45
2023-03-12T18:15:23.893Z,36.21
2023-03-12T18:17:56.620Z,35.80
2023-03-12T18:20:37.471Z,36.35
2023-03-12T18:23:08.320Z,36.57
2023-03-12T18:25:37.947Z,36.69
2023-03-12T18:28:06.403Z,36.30
2023-03-12T18:30:34.957Z,36.30
2023-03-12T18:33:03.097Z,36.24
2023-03-12T18:35:31.235Z,36.42
2023-03-12T18:37:59.608Z,36.19
2023-03-12T18:40:32.903Z,36.46
2023-03-12T18:43:01.566Z,36.73
2023-03-12T18:45:30.268Z,36.40
2023-03-12T18:47:58.392Z,36.69
2023-03-12T18:50:26.698Z,37.17
2023-03-12T18:52:54.815Z,36.95
2023-03-12T18:55:23.072Z,37.07
2023-03-12T18:57:52.579Z,37.05
2023-03-12T19:00:21.424Z,37.26
2023-03-12T19:02:49.671Z,37.32
2023-03-12T19:05:18.077Z,37.48
2023-03-12T19:07:46.503Z,37.54
2023-03-12T19:10:15.431Z,38.03
2023-03-12T19:12:52.845Z,38.20
2023-03-12T19:15:25.184Z,38.44
2023-03-12T19:17:54.291Z,38.43
2023-03-12T19:20:22.681Z,39.03
2023-03-12T19:22:50.839Z,38.28
2023-03-12T19:25:20.105Z,38.73
2023-03-12T19:27:48.359Z,39.65
2023-03-12T19:30:17.000Z,40.02
2023-03-12T19:32:46.531Z,40.34
2023-03-12T19:35:15.720Z,40.58
2023-03-12T19:37:43.991Z,40.27
2023-03-12T19:40:13.426Z,40.49
2023-03-12T19:42:41.728Z,41.17
2023-03-12T19:45:11.145Z,40.98
2023-03-12T19:47:39.294Z,41.75
2023-03-12T19:50:10.630Z,41.51
2023-03-12T19:52:38.917Z,41.54
2023-03-12T19:55:07.572Z,41.88
2023-03-12T19:57:36.534Z,42.85
2023-03-12T20:00:08.096Z,43.47
2023-03-12T20:02:36.594Z,44.20
2023-03-12T20:05:05.304Z,44.63
2023-03-12T20:07:34.952Z,45.23
2023-03-12T20:10:03.133Z,45.90
2023-03-12T20:12:31.305Z,46.92
2023-03-12T20:14:59.726Z,47.35
2023-03-12T20:17:27.866Z,47.82
2023-03-12T20:19:56.337Z,48.31
2023-03-12T20:22:26.254Z,48.52
2023-03-12T20:24:55.925Z,48.82
2023-03-12T20:27:24.139Z,49.29
2023-03-12T20:29:52.198Z,50.94
2023-03-12T20:32:20.623Z,51.98
2023-03-12T20:34:48.871Z,52.84
2023-03-12T20:37:18.162Z,53.35
2023-03-12T20:39:46.338Z,53.54
2023-03-12T20:42:15.917Z,53.62
2023-03-12T20:44:44.100Z,53.88
2023-03-12T20:47:12.237Z,54.10
2023-03-12T20:49:40.399Z,54.36
2023-03-12T20:52:08.613Z,53.82
2023-03-12T20:54:36.903Z,53.47
2023-03-12T20:57:05.105Z,53.57
2023-03-12T20:59:34.654Z,53.54
2023-03-12T21:02:02.744Z,53.34
2023-03-12T21:04:30.986Z,53.29
2023-03-12T21:06:59.144Z,53.47
2023-03-12T21:09:27.387Z,53.69
2023-03-12T21:11:56.139Z,54.31
2023-03-12T21:14:24.494Z,55.62
2023-03-12T21:16:54.297Z,56.88
2023-03-12T21:19:22.430Z,55.28
2023-03-12T21:21:50.595Z,54.98
2023-03-12T21:24:18.830Z,55.16
2023-03-12T21:26:46.903Z,54.54
2023-03-12T21:29:15.310Z,54.42
2023-03-12T21:31:43.574Z,54.15
2023-03-12T21:34:13.085Z,54.18
2023-03-12T21:36:41.245Z,54.66
2023-03-12T21:39:09.388Z,54.88
2023-03-12T21:41:37.853Z,55.86
2023-03-12T21:44:06.129Z,56.38
2023-03-12T21:46:35.980Z,57.42
2023-03-12T21:49:04.821Z,58.04
2023-03-12T21:51:34.441Z,59.78
2023-03-12T21:54:02.797Z,60.40
2023-03-12T21:56:32.139Z,61.24
2023-03-12T21:59:00.245Z,61.97
2023-03-12T22:01:28.817Z,62.86
2023-03-12T22:03:57.164Z,63.20
2023-03-12T22:06:25.455Z,64.23
2023-03-12T22:08:56.057Z,61.98
2023-03-12T22:11:24.187Z,60.49
2023-03-12T22:13:52.305Z,59.59
2023-03-12T22:16:22.068Z,60.81
2023-03-12T22:18:50.223Z,62.91
2023-03-12T22:21:20.257Z,64.95
2023-03-12T22:23:51.189Z,67.05
2023-03-12T22:26:22.481Z,67.84
2023-03-12T22:28:51.604Z,68.21
2023-03-12T22:31:21.159Z,69.20
2023-03-12T22:33:49.802Z,70.08
2023-03-12T22:36:18.869Z,71.45
2023-03-12T22:38:48.397Z,72.58
2023-03-12T22:41:19.291Z,73.83
2023-03-12T22:43:50.309Z,75.30
2023-03-12T22:46:20.114Z,76.66
2023-03-12T22:48:52.668Z,77.41
2023-03-12T22:51:20.910Z,78.22
2023-03-12T22:53:48.996Z,78.85
2023-03-12T22:56:17.479Z,79.14
2023-03-12T22:58:45.776Z,79.83
2023-03-12T23:01:17.920Z,80.42
2023-03-12T23:03:47.359Z,80.89
2023-03-12T23:06:16.653Z,81.84
2023-03-12T23:08:47.517Z,82.00
2023-03-12T23:11:16.016Z,82.01
2023-03-12T23:13:45.978Z,83.70
2023-03-12T23:16:18.178Z,83.63
2023-03-12T23:18:46.798Z,83.76
2023-03-12T23:21:17.114Z,83.58
2023-03-12T23:23:45.399Z,83.86
2023-03-12T23:26:16.467Z,83.95
2023-03-12T23:28:46.920Z,84.29
2023-03-12T23:31:17.367Z,84.67
2023-03-12T23:33:46.017Z,85.88
2023-03-12T23:36:15.722Z,86.04
2023-03-12T23:38:44.712Z,86.10
2023-03-12T23:41:14.625Z,85.78
2023-03-12T23:43:43.596Z,85.34
2023-03-12T23:46:13.235Z,85.03
2023-03-12T23:48:42.953Z,85.44
2023-03-12T23:51:13.054Z,85.64
2023-03-12T23:53:42.797Z,86.19
2023-03-12T23:56:13.300Z,85.84
2023-03-12T23:58:41.627Z,86.09
